sensor_id;sensor_type;location;lat;lon;timestamp;P1;durP1;ratioP1;P2;durP2;ratioP2
61250;SDS011;47126;47.508;8.590;2024-02-21T00:02:20;6.22;;;2.90;;
61250;SDS011;47126;47.508;8.590;2024-02-21T00:04:46;5.65;;;2.90;;
61250;SDS011;47126;47.508;8.590;2024-02-21T00:07:12;5.53;;;2.58;;
61250;SDS011;47126;47.508;8.590;2024-02-21T00:09:38;6.78;;;2.78;;
61250;SDS011;47126;47.508;8.590;2024-02-21T00:12:04;13.63;;;3.03;;
61250;SDS011;47126;47.508;8.590;2024-02-21T00:14:30;6.70;;;2.83;;
61250;SDS011;47126;47.508;8.590;2024-02-21T00:16:56;4.97;;;2.83;;
61250;SDS011;47126;47.508;8.590;2024-02-21T00:19:22;8.60;;;3.38;;
61250;SDS011;47126;47.508;8.590;2024-02-21T00:21:48;7.60;;;3.30;;
61250;SDS011;47126;47.508;8.590;2024-02-21T00:24:14;11.45;;;3.13;;
61250;SDS011;47126;47.508;8.590;2024-02-21T00:26:41;6.70;;;3.38;;
61250;SDS011;47126;47.508;8.590;2024-02-21T00:29:07;4.25;;;2.10;;
61250;SDS011;47126;47.508;8.590;2024-02-21T00:31:33;4.43;;;2.20;;
61250;SDS011;47126;47.508;8.590;2024-02-21T00:33:59;7.03;;;3.15;;
61250;SDS011;47126;47.508;8.590;2024-02-21T00:36:25;5.50;;;2.83;;
61250;SDS011;47126;47.508;8.590;2024-02-21T00:38:51;5.38;;;2.95;;
61250;SDS011;47126;47.508;8.590;2024-02-21T00:41:17;4.55;;;2.65;;
61250;SDS011;47126;47.508;8.590;2024-02-21T00:43:43;6.18;;;2.67;;
61250;SDS011;47126;47.508;8.590;2024-02-21T00:46:09;6.72;;;2.85;;
61250;SDS011;47126;47.508;8.590;2024-02-21T00:48:35;5.22;;;2.85;;
61250;SDS011;47126;47.508;8.590;2024-02-21T00:51:01;12.20;;;3.88;;
61250;SDS011;47126;47.508;8.590;2024-02-21T00:53:27;10.10;;;3.88;;
61250;SDS011;47126;47.508;8.590;2024-02-21T00:55:53;5.50;;;2.90;;
61250;SDS011;47126;47.508;8.590;2024-02-21T00:58:21;7.63;;;3.42;;
61250;SDS011;47126;47.508;8.590;2024-02-21T01:00:47;4.93;;;2.60;;
61250;SDS011;47126;47.508;8.590;2024-02-21T01:03:13;9.77;;;3.97;;
61250;SDS011;47126;47.508;8.590;2024-02-21T01:05:39;6.65;;;3.40;;
61250;SDS011;47126;47.508;8.590;2024-02-21T01:08:05;8.40;;;3.20;;
61250;SDS011;47126;47.508;8.590;2024-02-21T01:10:31;7.45;;;3.35;;
61250;SDS011;47126;47.508;8.590;2024-02-21T01:12:57;9.07;;;3.38;;
61250;SDS011;47126;47.508;8.590;2024-02-21T01:15:23;9.38;;;3.03;;
61250;SDS011;47126;47.508;8.590;2024-02-21T01:17:49;7.45;;;3.45;;
61250;SDS011;47126;47.508;8.590;2024-02-21T01:20:19;10.73;;;3.10;;
61250;SDS011;47126;47.508;8.590;2024-02-21T01:22:45;6.97;;;3.30;;
61250;SDS011;47126;47.508;8.590;2024-02-21T01:25:11;6.30;;;2.80;;
61250;SDS011;47126;47.508;8.590;2024-02-21T01:27:37;5.63;;;2.25;;
61250;SDS011;47126;47.508;8.590;2024-02-21T01:30:04;9.38;;;3.22;;
61250;SDS011;47126;47.508;8.590;2024-02-21T01:32:30;5.22;;;2.45;;
61250;SDS011;47126;47.508;8.590;2024-02-21T01:34:56;6.25;;;2.22;;
61250;SDS011;47126;47.508;8.590;2024-02-21T01:37:22;7.53;;;2.40;;
61250;SDS011;47126;47.508;8.590;2024-02-21T01:39:48;8.10;;;2.50;;
61250;SDS011;47126;47.508;8.590;2024-02-21T01:42:15;7.47;;;2.50;;
61250;SDS011;47126;47.508;8.590;2024-02-21T01:44:41;6.43;;;2.70;;
61250;SDS011;47126;47.508;8.590;2024-02-21T01:47:07;4.57;;;2.60;;
61250;SDS011;47126;47.508;8.590;2024-02-21T01:49:34;4.82;;;2.35;;
61250;SDS011;47126;47.508;8.590;2024-02-21T01:52:00;6.85;;;2.88;;
61250;SDS011;47126;47.508;8.590;2024-02-21T01:54:27;5.40;;;2.60;;
61250;SDS011;47126;47.508;8.590;2024-02-21T01:56:56;4.63;;;2.08;;
61250;SDS011;47126;47.508;8.590;2024-02-21T01:59:22;8.18;;;2.92;;
61250;SDS011;47126;47.508;8.590;2024-02-21T02:01:48;6.57;;;3.05;;
61250;SDS011;47126;47.508;8.590;2024-02-21T02:04:14;7.93;;;2.88;;
61250;SDS011;47126;47.508;8.590;2024-02-21T02:06:40;5.93;;;2.72;;
61250;SDS011;47126;47.508;8.590;2024-02-21T02:09:07;5.63;;;2.50;;
61250;SDS011;47126;47.508;8.590;2024-02-21T02:11:33;10.25;;;3.00;;
61250;SDS011;47126;47.508;8.590;2024-02-21T02:13:59;10.25;;;4.15;;
61250;SDS011;47126;47.508;8.590;2024-02-21T02:16:25;7.03;;;3.40;;
61250;SDS011;47126;47.508;8.590;2024-02-21T02:18:51;6.90;;;2.83;;
61250;SDS011;47126;47.508;8.590;2024-02-21T02:21:27;5.70;;;2.30;;
61250;SDS011;47126;47.508;8.590;2024-02-21T02:23:53;10.63;;;2.80;;
61250;SDS011;47126;47.508;8.590;2024-02-21T02:26:19;4.88;;;2.72;;
61250;SDS011;47126;47.508;8.590;2024-02-21T02:28:45;3.25;;;1.98;;
61250;SDS011;47126;47.508;8.590;2024-02-21T02:31:11;5.88;;;2.40;;
61250;SDS011;47126;47.508;8.590;2024-02-21T02:33:37;5.22;;;2.40;;
61250;SDS011;47126;47.508;8.590;2024-02-21T02:36:03;5.38;;;2.05;;
61250;SDS011;47126;47.508;8.590;2024-02-21T02:38:30;4.30;;;2.38;;
61250;SDS011;47126;47.508;8.590;2024-02-21T02:40:55;4.57;;;2.53;;
61250;SDS011;47126;47.508;8.590;2024-02-21T02:43:22;6.85;;;2.92;;
61250;SDS011;47126;47.508;8.590;2024-02-21T02:45:48;8.27;;;2.80;;
61250;SDS011;47126;47.508;8.590;2024-02-21T02:48:14;6.82;;;3.00;;
61250;SDS011;47126;47.508;8.590;2024-02-21T02:50:40;5.85;;;2.70;;
61250;SDS011;47126;47.508;8.590;2024-02-21T02:53:06;5.60;;;2.50;;
61250;SDS011;47126;47.508;8.590;2024-02-21T02:55:32;7.97;;;3.22;;
61250;SDS011;47126;47.508;8.590;2024-02-21T02:57:58;4.95;;;3.03;;
61250;SDS011;47126;47.508;8.590;2024-02-21T03:00:24;6.55;;;2.70;;
61250;SDS011;47126;47.508;8.590;2024-02-21T03:02:50;6.20;;;2.55;;
61250;SDS011;47126;47.508;8.590;2024-02-21T03:05:20;6.18;;;2.85;;
61250;SDS011;47126;47.508;8.590;2024-02-21T03:07:47;4.75;;;2.65;;
61250;SDS011;47126;47.508;8.590;2024-02-21T03:10:14;5.80;;;3.10;;
61250;SDS011;47126;47.508;8.590;2024-02-21T03:12:43;4.82;;;2.50;;
61250;SDS011;47126;47.508;8.590;2024-02-21T03:15:09;10.45;;;4.68;;
61250;SDS011;47126;47.508;8.590;2024-02-21T03:17:35;9.40;;;3.67;;
61250;SDS011;47126;47.508;8.590;2024-02-21T03:20:04;7.22;;;2.85;;
61250;SDS011;47126;47.508;8.590;2024-02-21T03:22:33;6.85;;;2.78;;
61250;SDS011;47126;47.508;8.590;2024-02-21T03:24:59;5.15;;;2.78;;
61250;SDS011;47126;47.508;8.590;2024-02-21T03:27:26;6.25;;;2.83;;
61250;SDS011;47126;47.508;8.590;2024-02-21T03:29:52;9.50;;;3.78;;
61250;SDS011;47126;47.508;8.590;2024-02-21T03:32:18;5.50;;;2.90;;
61250;SDS011;47126;47.508;8.590;2024-02-21T03:34:44;7.32;;;3.15;;
61250;SDS011;47126;47.508;8.590;2024-02-21T03:37:10;9.55;;;4.50;;
61250;SDS011;47126;47.508;8.590;2024-02-21T03:39:38;12.88;;;4.70;;
61250;SDS011;47126;47.508;8.590;2024-02-21T03:42:04;7.00;;;3.17;;
61250;SDS011;47126;47.508;8.590;2024-02-21T03:44:30;6.85;;;3.75;;
61250;SDS011;47126;47.508;8.590;2024-02-21T03:46:57;8.70;;;4.47;;
61250;SDS011;47126;47.508;8.590;2024-02-21T03:49:23;6.88;;;3.88;;
61250;SDS011;47126;47.508;8.590;2024-02-21T03:51:49;8.07;;;3.30;;
61250;SDS011;47126;47.508;8.590;2024-02-21T03:54:15;6.15;;;3.00;;
61250;SDS011;47126;47.508;8.590;2024-02-21T03:56:41;4.50;;;2.72;;
61250;SDS011;47126;47.508;8.590;2024-02-21T03:59:07;9.95;;;3.90;;
61250;SDS011;47126;47.508;8.590;2024-02-21T04:01:36;6.35;;;2.63;;
61250;SDS011;47126;47.508;8.590;2024-02-21T04:04:02;9.10;;;3.65;;
61250;SDS011;47126;47.508;8.590;2024-02-21T04:06:28;8.45;;;3.20;;
61250;SDS011;47126;47.508;8.590;2024-02-21T04:08:54;7.10;;;3.85;;
61250;SDS011;47126;47.508;8.590;2024-02-21T04:11:20;16.02;;;6.53;;
61250;SDS011;47126;47.508;8.590;2024-02-21T04:13:47;12.30;;;6.25;;
61250;SDS011;47126;47.508;8.590;2024-02-21T04:16:15;11.55;;;5.10;;
61250;SDS011;47126;47.508;8.590;2024-02-21T04:18:41;8.10;;;3.45;;
61250;SDS011;47126;47.508;8.590;2024-02-21T04:21:07;6.25;;;3.05;;
61250;SDS011;47126;47.508;8.590;2024-02-21T04:23:33;7.78;;;2.85;;
61250;SDS011;47126;47.508;8.590;2024-02-21T04:25:59;12.35;;;3.05;;
61250;SDS011;47126;47.508;8.590;2024-02-21T04:28:27;7.35;;;3.15;;
61250;SDS011;47126;47.508;8.590;2024-02-21T04:30:53;7.25;;;3.00;;
61250;SDS011;47126;47.508;8.590;2024-02-21T04:33:19;7.05;;;3.38;;
61250;SDS011;47126;47.508;8.590;2024-02-21T04:35:45;7.18;;;3.33;;
61250;SDS011;47126;47.508;8.590;2024-02-21T04:38:11;7.53;;;3.88;;
61250;SDS011;47126;47.508;8.590;2024-02-21T04:40:37;8.55;;;4.40;;
61250;SDS011;47126;47.508;8.590;2024-02-21T04:43:04;9.45;;;4.20;;
61250;SDS011;47126;47.508;8.590;2024-02-21T04:45:30;8.65;;;4.07;;
61250;SDS011;47126;47.508;8.590;2024-02-21T04:47:56;9.15;;;4.50;;
61250;SDS011;47126;47.508;8.590;2024-02-21T04:50:22;6.28;;;3.80;;
61250;SDS011;47126;47.508;8.590;2024-02-21T04:52:48;8.70;;;4.35;;
61250;SDS011;47126;47.508;8.590;2024-02-21T04:55:14;13.43;;;5.28;;
61250;SDS011;47126;47.508;8.590;2024-02-21T04:57:40;10.98;;;3.83;;
61250;SDS011;47126;47.508;8.590;2024-02-21T05:00:06;8.90;;;4.13;;
61250;SDS011;47126;47.508;8.590;2024-02-21T05:02:33;29.25;;;12.00;;
61250;SDS011;47126;47.508;8.590;2024-02-21T05:04:59;21.65;;;7.68;;
61250;SDS011;47126;47.508;8.590;2024-02-21T05:07:25;11.38;;;4.10;;
61250;SDS011;47126;47.508;8.590;2024-02-21T05:09:51;11.10;;;4.35;;
61250;SDS011;47126;47.508;8.590;2024-02-21T05:12:17;10.85;;;4.28;;
61250;SDS011;47126;47.508;8.590;2024-02-21T05:14:43;11.07;;;4.35;;
61250;SDS011;47126;47.508;8.590;2024-02-21T05:17:09;12.10;;;4.05;;
61250;SDS011;47126;47.508;8.590;2024-02-21T05:19:36;9.55;;;4.88;;
61250;SDS011;47126;47.508;8.590;2024-02-21T05:22:02;10.20;;;4.63;;
61250;SDS011;47126;47.508;8.590;2024-02-21T05:24:28;10.52;;;5.32;;
61250;SDS011;47126;47.508;8.590;2024-02-21T05:26:54;7.40;;;3.67;;
61250;SDS011;47126;47.508;8.590;2024-02-21T05:29:20;8.02;;;4.28;;
61250;SDS011;47126;47.508;8.590;2024-02-21T05:34:19;10.60;;;4.57;;
61250;SDS011;47126;47.508;8.590;2024-02-21T05:36:45;11.10;;;4.32;;
61250;SDS011;47126;47.508;8.590;2024-02-21T05:39:12;12.13;;;4.20;;
61250;SDS011;47126;47.508;8.590;2024-02-21T05:41:41;9.52;;;4.20;;
61250;SDS011;47126;47.508;8.590;2024-02-21T05:44:07;11.32;;;4.40;;
61250;SDS011;47126;47.508;8.590;2024-02-21T05:46:33;8.15;;;3.80;;
61250;SDS011;47126;47.508;8.590;2024-02-21T05:49:00;16.27;;;5.10;;
61250;SDS011;47126;47.508;8.590;2024-02-21T05:51:26;9.27;;;4.55;;
61250;SDS011;47126;47.508;8.590;2024-02-21T05:53:52;10.00;;;5.03;;
61250;SDS011;47126;47.508;8.590;2024-02-21T05:56:18;13.27;;;4.07;;
61250;SDS011;47126;47.508;8.590;2024-02-21T05:58:44;14.23;;;3.78;;
61250;SDS011;47126;47.508;8.590;2024-02-21T06:01:11;7.03;;;3.35;;
61250;SDS011;47126;47.508;8.590;2024-02-21T06:03:37;7.03;;;3.53;;
61250;SDS011;47126;47.508;8.590;2024-02-21T06:06:06;11.00;;;4.50;;
61250;SDS011;47126;47.508;8.590;2024-02-21T06:08:32;8.02;;;4.35;;
61250;SDS011;47126;47.508;8.590;2024-02-21T06:10:58;7.65;;;4.20;;
61250;SDS011;47126;47.508;8.590;2024-02-21T06:13:27;7.75;;;4.25;;
61250;SDS011;47126;47.508;8.590;2024-02-21T06:15:53;7.55;;;3.80;;
61250;SDS011;47126;47.508;8.590;2024-02-21T06:18:19;9.60;;;4.28;;
61250;SDS011;47126;47.508;8.590;2024-02-21T06:20:45;8.15;;;4.13;;
61250;SDS011;47126;47.508;8.590;2024-02-21T06:23:12;7.70;;;3.42;;
61250;SDS011;47126;47.508;8.590;2024-02-21T06:25:38;11.88;;;4.25;;
61250;SDS011;47126;47.508;8.590;2024-02-21T06:28:05;8.27;;;3.88;;
61250;SDS011;47126;47.508;8.590;2024-02-21T06:30:31;10.68;;;3.95;;
61250;SDS011;47126;47.508;8.590;2024-02-21T06:32:57;10.57;;;4.75;;
61250;SDS011;47126;47.508;8.590;2024-02-21T06:35:24;7.40;;;4.60;;
61250;SDS011;47126;47.508;8.590;2024-02-21T06:37:51;9.75;;;4.32;;
61250;SDS011;47126;47.508;8.590;2024-02-21T06:40:21;13.07;;;5.10;;
61250;SDS011;47126;47.508;8.590;2024-02-21T06:42:50;20.37;;;5.10;;
61250;SDS011;47126;47.508;8.590;2024-02-21T06:45:16;9.10;;;5.13;;
61250;SDS011;47126;47.508;8.590;2024-02-21T06:47:42;13.43;;;4.22;;
61250;SDS011;47126;47.508;8.590;2024-02-21T06:50:09;9.38;;;3.92;;
61250;SDS011;47126;47.508;8.590;2024-02-21T06:52:38;11.00;;;4.10;;
61250;SDS011;47126;47.508;8.590;2024-02-21T06:55:04;11.15;;;3.85;;
61250;SDS011;47126;47.508;8.590;2024-02-21T06:57:30;13.38;;;4.80;;
61250;SDS011;47126;47.508;8.590;2024-02-21T06:59:59;17.15;;;6.05;;
61250;SDS011;47126;47.508;8.590;2024-02-21T07:02:25;13.25;;;5.47;;
61250;SDS011;47126;47.508;8.590;2024-02-21T07:04:51;18.33;;;5.85;;
61250;SDS011;47126;47.508;8.590;2024-02-21T07:07:17;17.02;;;7.13;;
61250;SDS011;47126;47.508;8.590;2024-02-21T07:09:43;23.70;;;8.32;;
61250;SDS011;47126;47.508;8.590;2024-02-21T07:12:15;26.33;;;10.15;;
61250;SDS011;47126;47.508;8.590;2024-02-21T07:14:41;24.98;;;10.27;;
61250;SDS011;47126;47.508;8.590;2024-02-21T07:17:07;23.55;;;9.25;;
61250;SDS011;47126;47.508;8.590;2024-02-21T07:19:33;20.70;;;8.73;;
61250;SDS011;47126;47.508;8.590;2024-02-21T07:22:01;29.42;;;11.30;;
61250;SDS011;47126;47.508;8.590;2024-02-21T07:24:28;23.52;;;10.13;;
61250;SDS011;47126;47.508;8.590;2024-02-21T07:26:54;18.83;;;6.53;;
61250;SDS011;47126;47.508;8.590;2024-02-21T07:29:30;15.52;;;6.72;;
61250;SDS011;47126;47.508;8.590;2024-02-21T07:31:56;11.38;;;4.50;;
61250;SDS011;47126;47.508;8.590;2024-02-21T07:34:22;9.27;;;4.03;;
61250;SDS011;47126;47.508;8.590;2024-02-21T07:37:09;9.57;;;3.33;;
61250;SDS011;47126;47.508;8.590;2024-02-21T07:39:40;4.32;;;2.13;;
61250;SDS011;47126;47.508;8.590;2024-02-21T07:42:06;8.05;;;2.90;;
61250;SDS011;47126;47.508;8.590;2024-02-21T07:44:33;6.30;;;2.67;;
61250;SDS011;47126;47.508;8.590;2024-02-21T07:46:59;9.50;;;3.22;;
61250;SDS011;47126;47.508;8.590;2024-02-21T07:49:25;10.85;;;3.70;;
61250;SDS011;47126;47.508;8.590;2024-02-21T07:51:52;8.85;;;4.47;;
61250;SDS011;47126;47.508;8.590;2024-02-21T07:54:18;9.52;;;3.70;;
61250;SDS011;47126;47.508;8.590;2024-02-21T07:56:44;8.70;;;3.65;;
61250;SDS011;47126;47.508;8.590;2024-02-21T07:59:10;8.30;;;3.35;;
61250;SDS011;47126;47.508;8.590;2024-02-21T08:01:38;6.30;;;3.13;;
61250;SDS011;47126;47.508;8.590;2024-02-21T08:04:04;6.22;;;3.25;;
61250;SDS011;47126;47.508;8.590;2024-02-21T08:06:30;7.22;;;4.20;;
61250;SDS011;47126;47.508;8.590;2024-02-21T08:08:56;6.63;;;3.22;;
61250;SDS011;47126;47.508;8.590;2024-02-21T08:11:22;6.22;;;3.53;;
61250;SDS011;47126;47.508;8.590;2024-02-21T08:13:48;7.78;;;3.22;;
61250;SDS011;47126;47.508;8.590;2024-02-21T08:16:14;10.00;;;3.38;;
61250;SDS011;47126;47.508;8.590;2024-02-21T08:18:44;5.60;;;3.00;;
61250;SDS011;47126;47.508;8.590;2024-02-21T08:21:10;5.53;;;2.92;;
61250;SDS011;47126;47.508;8.590;2024-02-21T08:23:36;5.95;;;2.83;;
61250;SDS011;47126;47.508;8.590;2024-02-21T08:26:03;5.57;;;2.97;;
61250;SDS011;47126;47.508;8.590;2024-02-21T08:28:32;5.50;;;3.08;;
61250;SDS011;47126;47.508;8.590;2024-02-21T08:30:58;10.43;;;3.08;;
61250;SDS011;47126;47.508;8.590;2024-02-21T08:33:27;11.90;;;3.22;;
61250;SDS011;47126;47.508;8.590;2024-02-21T08:35:55;10.48;;;3.08;;
61250;SDS011;47126;47.508;8.590;2024-02-21T08:38:22;6.18;;;2.38;;
61250;SDS011;47126;47.508;8.590;2024-02-21T08:40:48;4.22;;;2.53;;
61250;SDS011;47126;47.508;8.590;2024-02-21T08:43:17;7.43;;;3.38;;
61250;SDS011;47126;47.508;8.590;2024-02-21T08:45:43;12.60;;;5.45;;
61250;SDS011;47126;47.508;8.590;2024-02-21T08:48:10;10.65;;;3.40;;
61250;SDS011;47126;47.508;8.590;2024-02-21T08:50:36;4.45;;;2.67;;
61250;SDS011;47126;47.508;8.590;2024-02-21T08:53:03;6.63;;;2.90;;
61250;SDS011;47126;47.508;8.590;2024-02-21T08:55:29;7.50;;;3.00;;
61250;SDS011;47126;47.508;8.590;2024-02-21T08:57:55;7.03;;;3.50;;
61250;SDS011;47126;47.508;8.590;2024-02-21T09:00:21;6.30;;;3.40;;
61250;SDS011;47126;47.508;8.590;2024-02-21T09:02:51;6.18;;;2.97;;
61250;SDS011;47126;47.508;8.590;2024-02-21T09:05:20;7.00;;;3.70;;
61250;SDS011;47126;47.508;8.590;2024-02-21T09:07:47;7.90;;;2.85;;
61250;SDS011;47126;47.508;8.590;2024-02-21T09:10:13;4.68;;;3.00;;
61250;SDS011;47126;47.508;8.590;2024-02-21T09:12:39;7.72;;;3.35;;
61250;SDS011;47126;47.508;8.590;2024-02-21T09:15:06;8.88;;;3.40;;
61250;SDS011;47126;47.508;8.590;2024-02-21T09:17:32;7.75;;;3.47;;
61250;SDS011;47126;47.508;8.590;2024-02-21T09:19:58;5.80;;;3.25;;
61250;SDS011;47126;47.508;8.590;2024-02-21T09:22:28;5.82;;;2.97;;
61250;SDS011;47126;47.508;8.590;2024-02-21T09:24:54;6.28;;;3.20;;
61250;SDS011;47126;47.508;8.590;2024-02-21T09:27:20;6.88;;;2.92;;
61250;SDS011;47126;47.508;8.590;2024-02-21T09:29:47;8.93;;;3.35;;
61250;SDS011;47126;47.508;8.590;2024-02-21T09:32:16;7.72;;;3.38;;
61250;SDS011;47126;47.508;8.590;2024-02-21T09:34:42;8.15;;;4.03;;
61250;SDS011;47126;47.508;8.590;2024-02-21T09:37:08;7.32;;;3.40;;
61250;SDS011;47126;47.508;8.590;2024-02-21T09:39:34;8.13;;;2.83;;
61250;SDS011;47126;47.508;8.590;2024-02-21T09:42:06;6.72;;;3.20;;
61250;SDS011;47126;47.508;8.590;2024-02-21T09:44:33;6.45;;;3.03;;
61250;SDS011;47126;47.508;8.590;2024-02-21T09:47:06;10.32;;;3.10;;
61250;SDS011;47126;47.508;8.590;2024-02-21T09:49:33;5.13;;;3.00;;
61250;SDS011;47126;47.508;8.590;2024-02-21T09:52:05;6.05;;;2.75;;
61250;SDS011;47126;47.508;8.590;2024-02-21T09:54:34;9.15;;;2.70;;
61250;SDS011;47126;47.508;8.590;2024-02-21T09:57:01;5.93;;;2.47;;
61250;SDS011;47126;47.508;8.590;2024-02-21T09:59:27;11.30;;;3.00;;
61250;SDS011;47126;47.508;8.590;2024-02-21T10:01:54;7.03;;;2.70;;
61250;SDS011;47126;47.508;8.590;2024-02-21T10:04:20;9.20;;;2.90;;
61250;SDS011;47126;47.508;8.590;2024-02-21T10:06:47;3.83;;;2.30;;
61250;SDS011;47126;47.508;8.590;2024-02-21T10:11:55;5.63;;;2.78;;
61250;SDS011;47126;47.508;8.590;2024-02-21T10:14:21;4.85;;;2.47;;
61250;SDS011;47126;47.508;8.590;2024-02-21T10:16:57;6.72;;;2.92;;
61250;SDS011;47126;47.508;8.590;2024-02-21T10:19:30;5.90;;;2.55;;
61250;SDS011;47126;47.508;8.590;2024-02-21T10:22:08;4.43;;;2.45;;
61250;SDS011;47126;47.508;8.590;2024-02-21T10:24:34;5.35;;;2.50;;
61250;SDS011;47126;47.508;8.590;2024-02-21T10:27:03;5.63;;;3.00;;
61250;SDS011;47126;47.508;8.590;2024-02-21T10:29:30;6.88;;;2.88;;
61250;SDS011;47126;47.508;8.590;2024-02-21T10:32:30;5.13;;;2.60;;
61250;SDS011;47126;47.508;8.590;2024-02-21T10:35:00;6.85;;;3.03;;
61250;SDS011;47126;47.508;8.590;2024-02-21T10:37:26;6.50;;;3.05;;
61250;SDS011;47126;47.508;8.590;2024-02-21T10:39:53;8.52;;;3.00;;
61250;SDS011;47126;47.508;8.590;2024-02-21T10:42:21;6.50;;;2.90;;
61250;SDS011;47126;47.508;8.590;2024-02-21T10:44:48;6.32;;;2.58;;
61250;SDS011;47126;47.508;8.590;2024-02-21T10:47:16;6.30;;;3.38;;
61250;SDS011;47126;47.508;8.590;2024-02-21T10:49:46;6.03;;;2.63;;
61250;SDS011;47126;47.508;8.590;2024-02-21T10:57:22;4.18;;;2.53;;
61250;SDS011;47126;47.508;8.590;2024-02-21T10:59:48;6.03;;;2.88;;
61250;SDS011;47126;47.508;8.590;2024-02-21T11:02:15;4.88;;;2.40;;
61250;SDS011;47126;47.508;8.590;2024-02-21T11:04:44;5.30;;;2.50;;
61250;SDS011;47126;47.508;8.590;2024-02-21T11:07:11;4.80;;;2.13;;
61250;SDS011;47126;47.508;8.590;2024-02-21T11:09:40;4.22;;;2.47;;
61250;SDS011;47126;47.508;8.590;2024-02-21T11:12:06;3.95;;;2.30;;
61250;SDS011;47126;47.508;8.590;2024-02-21T11:14:33;5.25;;;2.38;;
61250;SDS011;47126;47.508;8.590;2024-02-21T11:17:14;7.28;;;2.70;;
61250;SDS011;47126;47.508;8.590;2024-02-21T11:19:45;5.28;;;1.92;;
61250;SDS011;47126;47.508;8.590;2024-02-21T11:22:15;4.50;;;2.30;;
61250;SDS011;47126;47.508;8.590;2024-02-21T11:24:41;8.13;;;2.78;;
61250;SDS011;47126;47.508;8.590;2024-02-21T11:27:18;5.65;;;2.42;;
61250;SDS011;47126;47.508;8.590;2024-02-21T11:29:53;4.00;;;2.63;;
61250;SDS011;47126;47.508;8.590;2024-02-21T11:32:20;4.82;;;2.42;;
61250;SDS011;47126;47.508;8.590;2024-02-21T11:35:00;5.47;;;2.80;;
61250;SDS011;47126;47.508;8.590;2024-02-21T11:37:30;5.10;;;2.35;;
61250;SDS011;47126;47.508;8.590;2024-02-21T11:40:02;7.22;;;2.53;;
61250;SDS011;47126;47.508;8.590;2024-02-21T11:42:35;6.20;;;2.50;;
61250;SDS011;47126;47.508;8.590;2024-02-21T11:45:01;6.45;;;2.53;;
61250;SDS011;47126;47.508;8.590;2024-02-21T11:47:30;5.25;;;2.72;;
61250;SDS011;47126;47.508;8.590;2024-02-21T11:49:56;8.20;;;2.50;;
61250;SDS011;47126;47.508;8.590;2024-02-21T11:52:30;7.50;;;2.72;;
61250;SDS011;47126;47.508;8.590;2024-02-21T11:54:56;5.80;;;2.70;;
61250;SDS011;47126;47.508;8.590;2024-02-21T11:57:29;7.00;;;3.10;;
61250;SDS011;47126;47.508;8.590;2024-02-21T11:59:55;7.60;;;3.05;;
61250;SDS011;47126;47.508;8.590;2024-02-21T12:02:21;5.55;;;2.55;;
61250;SDS011;47126;47.508;8.590;2024-02-21T12:04:48;4.22;;;2.20;;
61250;SDS011;47126;47.508;8.590;2024-02-21T12:07:14;3.55;;;2.58;;
61250;SDS011;47126;47.508;8.590;2024-02-21T12:09:41;7.40;;;3.80;;
61250;SDS011;47126;47.508;8.590;2024-02-21T12:12:14;6.18;;;2.90;;
61250;SDS011;47126;47.508;8.590;2024-02-21T12:14:45;7.38;;;2.90;;
61250;SDS011;47126;47.508;8.590;2024-02-21T12:17:12;5.40;;;3.00;;
61250;SDS011;47126;47.508;8.590;2024-02-21T12:19:38;3.78;;;2.63;;
61250;SDS011;47126;47.508;8.590;2024-02-21T12:22:04;5.85;;;2.95;;
61250;SDS011;47126;47.508;8.590;2024-02-21T12:24:31;6.25;;;3.30;;
61250;SDS011;47126;47.508;8.590;2024-02-21T12:26:57;5.85;;;2.97;;
61250;SDS011;47126;47.508;8.590;2024-02-21T12:29:26;6.50;;;3.10;;
61250;SDS011;47126;47.508;8.590;2024-02-21T12:34:20;5.95;;;2.92;;
61250;SDS011;47126;47.508;8.590;2024-02-21T12:36:48;6.25;;;3.22;;
61250;SDS011;47126;47.508;8.590;2024-02-21T12:39:14;4.88;;;3.20;;
61250;SDS011;47126;47.508;8.590;2024-02-21T12:41:40;8.77;;;2.70;;
61250;SDS011;47126;47.508;8.590;2024-02-21T12:44:08;6.38;;;2.72;;
61250;SDS011;47126;47.508;8.590;2024-02-21T12:46:36;5.38;;;2.83;;
61250;SDS011;47126;47.508;8.590;2024-02-21T12:49:02;5.45;;;2.97;;
61250;SDS011;47126;47.508;8.590;2024-02-21T12:51:29;5.00;;;2.60;;
61250;SDS011;47126;47.508;8.590;2024-02-21T12:53:55;10.70;;;3.10;;
61250;SDS011;47126;47.508;8.590;2024-02-21T12:56:22;5.47;;;2.97;;
61250;SDS011;47126;47.508;8.590;2024-02-21T12:58:49;5.90;;;2.78;;
61250;SDS011;47126;47.508;8.590;2024-02-21T13:01:15;6.63;;;2.97;;
61250;SDS011;47126;47.508;8.590;2024-02-21T13:03:41;5.35;;;2.72;;
61250;SDS011;47126;47.508;8.590;2024-02-21T13:06:07;5.78;;;2.53;;
61250;SDS011;47126;47.508;8.590;2024-02-21T13:08:35;6.60;;;2.45;;
61250;SDS011;47126;47.508;8.590;2024-02-21T13:11:02;4.45;;;2.50;;
61250;SDS011;47126;47.508;8.590;2024-02-21T13:13:28;4.80;;;2.50;;
61250;SDS011;47126;47.508;8.590;2024-02-21T13:15:54;4.68;;;2.78;;
61250;SDS011;47126;47.508;8.590;2024-02-21T13:18:20;4.53;;;2.50;;
61250;SDS011;47126;47.508;8.590;2024-02-21T13:20:52;4.07;;;2.20;;
61250;SDS011;47126;47.508;8.590;2024-02-21T13:23:18;5.20;;;2.55;;
61250;SDS011;47126;47.508;8.590;2024-02-21T13:25:46;5.13;;;2.70;;
61250;SDS011;47126;47.508;8.590;2024-02-21T13:28:12;7.80;;;3.20;;
61250;SDS011;47126;47.508;8.590;2024-02-21T13:30:41;5.80;;;2.63;;
61250;SDS011;47126;47.508;8.590;2024-02-21T13:33:07;5.13;;;2.53;;
61250;SDS011;47126;47.508;8.590;2024-02-21T13:35:34;5.00;;;2.75;;
61250;SDS011;47126;47.508;8.590;2024-02-21T13:38:01;12.23;;;7.00;;
61250;SDS011;47126;47.508;8.590;2024-02-21T13:40:27;11.55;;;2.53;;
61250;SDS011;47126;47.508;8.590;2024-02-21T13:42:53;3.70;;;2.28;;
61250;SDS011;47126;47.508;8.590;2024-02-21T13:45:20;3.55;;;1.92;;
61250;SDS011;47126;47.508;8.590;2024-02-21T13:47:46;6.85;;;2.17;;
61250;SDS011;47126;47.508;8.590;2024-02-21T13:50:13;6.05;;;2.40;;
61250;SDS011;47126;47.508;8.590;2024-02-21T13:52:39;4.05;;;2.05;;
61250;SDS011;47126;47.508;8.590;2024-02-21T13:55:05;5.28;;;1.63;;
61250;SDS011;47126;47.508;8.590;2024-02-21T13:57:33;2.63;;;1.70;;
61250;SDS011;47126;47.508;8.590;2024-02-21T13:59:59;4.07;;;1.83;;
61250;SDS011;47126;47.508;8.590;2024-02-21T14:02:25;2.42;;;1.20;;
61250;SDS011;47126;47.508;8.590;2024-02-21T14:04:51;4.78;;;1.20;;
61250;SDS011;47126;47.508;8.590;2024-02-21T14:07:24;2.53;;;1.30;;
61250;SDS011;47126;47.508;8.590;2024-02-21T14:09:50;2.00;;;1.15;;
61250;SDS011;47126;47.508;8.590;2024-02-21T14:12:16;4.00;;;1.50;;
61250;SDS011;47126;47.508;8.590;2024-02-21T14:14:45;2.95;;;1.10;;
61250;SDS011;47126;47.508;8.590;2024-02-21T14:17:11;8.23;;;2.42;;
61250;SDS011;47126;47.508;8.590;2024-02-21T14:19:38;1.98;;;1.40;;
61250;SDS011;47126;47.508;8.590;2024-02-21T14:22:09;4.50;;;1.42;;
61250;SDS011;47126;47.508;8.590;2024-02-21T14:24:37;3.05;;;1.73;;
61250;SDS011;47126;47.508;8.590;2024-02-21T14:27:04;3.85;;;1.60;;
61250;SDS011;47126;47.508;8.590;2024-02-21T14:29:30;5.18;;;1.55;;
61250;SDS011;47126;47.508;8.590;2024-02-21T14:31:56;2.85;;;1.55;;
61250;SDS011;47126;47.508;8.590;2024-02-21T14:34:22;2.53;;;1.27;;
61250;SDS011;47126;47.508;8.590;2024-02-21T14:36:48;4.43;;;1.50;;
61250;SDS011;47126;47.508;8.590;2024-02-21T14:39:14;7.32;;;1.58;;
61250;SDS011;47126;47.508;8.590;2024-02-21T14:41:40;5.47;;;1.58;;
61250;SDS011;47126;47.508;8.590;2024-02-21T14:44:06;2.08;;;1.33;;
61250;SDS011;47126;47.508;8.590;2024-02-21T14:46:34;2.13;;;1.27;;
61250;SDS011;47126;47.508;8.590;2024-02-21T14:49:00;4.25;;;1.23;;
61250;SDS011;47126;47.508;8.590;2024-02-21T14:51:28;2.13;;;1.38;;
61250;SDS011;47126;47.508;8.590;2024-02-21T14:53:54;7.03;;;1.52;;
61250;SDS011;47126;47.508;8.590;2024-02-21T14:56:20;3.78;;;1.52;;
61250;SDS011;47126;47.508;8.590;2024-02-21T14:58:46;3.97;;;1.70;;